Station: Taree Airport  

  Atmospheric Gas Attenuation - ITU Rec 676-11   ----------------- dB/100km -----------------
Date Time Temp RH % AH g/m3 Dew Point Wind Direction Speed kph Gust kph Barometer mB Rainfall Since 9am 24GHz 47GHz 76GHz 122GHz 134GHz 241GHz
08/05 12:30 19.8 35 5.98 3.9 22 32 1016.9 0 13.8 20.6 27.8 72.5 61.0 207.9
08/05 12:20 19.4 34 5.67 3.2 19 20 1017 0 13.2 20.3 26.9 70.1 57.8 196.8
08/05 12:10 19.2 34 5.61 3 22 26 1017.1 0 13.0 20.2 26.8 69.8 57.3 195.0
08/05 12:00 18.9 34 5.51 2.7 24 35 1017.3 0 12.8 20.2 26.6 69.1 56.4 191.9
08/05 11:50 18.9 35 5.67 3.1 24 33 1017.5 0 13.2 20.4 27.1 70.6 58.2 198.1
08/05 11:40 18.6 34 5.41 2.4 22 28 1017.6 0 12.6 20.1 26.4 68.5 55.6 188.8
08/05 11:30 18.4 34 5.35 2.3 22 32 1017.7 0 12.5 20.1 26.2 68.2 55.0 186.9
08/05 11:20 18.7 35 5.6 2.9 20 28 1017.8 0 13.0 20.4 27.0 70.1 57.6 195.9
08/05 11:10 18 35 5.38 2.3 17 22 1018 0 12.6 20.2 26.5 68.8 55.7 189.0
08/05 11:00 18 36 5.53 2.7 22 30 1018.2 0 12.9 20.4 27.0 70.1 57.3 194.9
08/05 10:50 17.3 35 5.16 1.7 17 22 1018.3 0 12.2 20.1 26.0 67.4 53.7 182.1
08/05 10:40 17.2 36 5.27 2 26 32 1018.4 0 12.4 20.3 26.4 68.5 55.0 186.6
08/05 10:30 17 38 5.5 2.6 26 35 1018.5 0 12.9 20.6 27.2 70.8 57.7 196.2
08/05 10:20 16.6 37 5.23 1.9 28 35 1018.7 0 12.3 20.3 26.4 68.7 55.0 186.5
08/05 10:10 16.3 38 5.27 2 22 35 1018.9 0 12.4 20.5 26.7 69.3 55.6 188.8
08/05 10:00 15.9 38 5.15 1.6 24 37 1019 0 12.2 20.4 26.4 68.5 54.6 184.9
08/05 09:50 15.6 38 5.05 1.3 28 32 1019.1 0 12.0 20.3 26.1 67.9 53.7 181.7
08/05 09:40 15.6 40 5.32 2.1 22 28 1019.1 0 12.6 20.7 27.1 70.4 56.7 192.4
08/05 09:30 14.9 39 4.97 1.1 22 33 1019.1 0 11.8 20.4 26.1 67.7 53.2 180.0
08/05 09:20 14.7 41 5.16 1.6 30 37 1019.1 0 12.3 20.7 26.8 69.7 55.5 188.1
08/05 09:10 14.4 40 4.94 1 17 19 1019.2 0 11.8 20.4 26.1 67.9 53.2 179.9
08/05 09:00 14.3 43 5.28 1.9 17 26 1019.2 0 12.5 20.9 27.4 71.1 57.2 193.9
08/05 08:50 13.9 43 5.16 1.5 17 22 1019.2 0 12.3 20.9 27.1 70.3 56.1 189.9
08/05 08:40 13.6 45 5.3 1.9 19 20 1019.4 0 12.6 21.1 27.7 71.9 57.9 196.4
08/05 08:30 13.2 47 5.4 2.1 19 28 1019.3 0 12.8 21.4 28.2 73.2 59.4 201.5
08/05 08:20 12.6 47 5.2 1.6 19 24 1019.6 0 12.4 21.2 27.7 71.9 57.5 194.7
08/05 08:10 12 47 5.01 1.1 17 26 1019.6 0 12.0 21.1 27.2 70.6 55.7 188.3
08/05 08:00 11.6 48 4.99 1 17 26 1019.5 0 12.0 21.1 27.2 70.8 55.7 188.3
08/05 07:50 11.1 49 4.94 0.8 15 17 1019.6 0 11.9 21.2 27.2 70.7 55.5 187.4
08/05 07:40 10.7 51 5.01 1 17 22 1019.4 0 12.1 21.4 27.6 71.7 56.6 191.3
08/05 07:30 10.3 52 4.98 0.9 9 13 1019.5 0 12.0 21.4 27.6 71.8 56.5 191.0
08/05 07:20 9.9 53 4.95 0.8 7 9 1019.5 0 12.0 21.5 27.7 71.9 56.4 190.6
08/05 07:10 9.5 54 4.92 0.7 11 13 1019.4 0 11.9 21.5 27.7 71.9 56.3 190.3
08/05 07:00 8.6 57 4.9 0.6 6 9 1019.5 0 11.9 21.7 27.9 72.6 56.7 191.6
08/05 06:50 8.1 57 4.74 0.1 7 7 1019.4 0 11.6 21.6 27.5 71.4 55.1 185.8
08/05 06:40 7.9 57 4.68 -0.1 7 9 1019.3 0 11.5 21.5 27.3 71.0 54.5 183.7
08/05 06:30 7.9 56 4.6 -0.3 9 11 1019.3 0 11.3 21.4 27.0 70.2 53.5 180.2
08/05 06:20 7.9 56 4.6 -0.3 9 11 1019.3 0 11.3 21.4 27.0 70.2 53.5 180.2
08/05 06:10 7.8 57 4.65 -0.2 11 11 1019.4 0 11.4 21.5 27.3 70.8 54.2 182.6
08/05 06:00 8.4 54 4.58 -0.4 13 20 1019.3 0 11.2 21.3 26.8 69.6 52.9 178.3
08/05 05:50 8.4 54 4.58 -0.4 15 17 1019.3 0 11.2 21.3 26.8 69.6 52.9 178.3
08/05 05:40 8.6 53 4.56 -0.4 15 17 1019.3 0 11.2 21.2 26.7 69.2 52.6 177.0
08/05 05:30 8.8 52 4.53 -0.5 15 20 1019.3 0 11.1 21.1 26.5 68.7 52.1 175.3
08/05 05:20 9 51 4.5 -0.6 13 15 1019.1 0 11.0 21.0 26.3 68.2 51.6 173.5
08/05 05:10 9 50 4.41 -0.9 13 17 1019.2 0 10.8 20.9 26.0 67.4 50.5 169.8
08/05 05:00 8.9 51 4.47 -0.7 13 17 1019.1 0 11.0 21.0 26.2 68.0 51.3 172.5
08/05 04:50 8.8 51 4.44 -0.8 15 17 1019.1 0 10.9 21.0 26.2 67.8 51.0 171.4
08/05 04:40 8.8 50 4.35 -1 13 13 1019.1 0 10.7 20.8 25.8 67.0 49.9 167.6
08/05 04:30 9.1 49 4.35 -1 11 13 1019 0 10.7 20.8 25.7 66.7 49.7 167.0
08/05 04:20 9.1 49 4.35 -1 11 11 1018.9 0 10.7 20.8 25.7 66.7 49.7 167.0
08/05 04:10 9.1 49 4.35 -1 11 15 1018.8 0 10.7 20.8 25.7 66.7 49.7 167.0
08/05 04:00 8.7 50 4.33 -1.1 9 11 1018.8 0 10.7 20.8 25.8 66.8 49.7 167.0
08/05 03:50 8.9 49 4.29 -1.2 9 9 1018.8 0 10.6 20.7 25.6 66.3 49.1 164.9
08/05 03:40 8.6 52 4.47 -0.7 9 9 1018.8 0 11.0 21.0 26.3 68.3 51.5 173.1
08/05 03:30 8 54 4.47 -0.7 9 11 1018.8 0 11.0 21.2 26.5 68.8 51.9 174.4
08/05 03:20 8.2 53 4.44 -0.8 9 9 1018.9 0 10.9 21.1 26.3 68.3 51.4 172.7
08/05 03:10 8.8 51 4.44 -0.8 9 11 1018.8 0 10.9 21.0 26.1 67.8 51.0 171.4
08/05 03:00 8.3 52 4.38 -1 9 11 1019 0 10.8 21.0 26.1 67.7 50.6 169.9
08/05 02:50 8.7 50 4.33 -1.1 9 9 1019.1 0 10.7 20.8 25.8 66.9 49.7 167.0
08/05 02:40 9 49 4.32 -1.1 9 9 1019.1 0 10.7 20.7 25.7 66.5 49.4 166.0
08/05 02:30 9.1 49 4.35 -1 9 13 1019.1 0 10.7 20.8 25.7 66.7 49.7 167.0
08/05 02:20 9.1 48 4.26 -1.3 11 11 1019.3 0 10.5 20.6 25.4 65.9 48.7 163.3
08/05 02:10 9.1 47 4.17 -1.6 11 11 1019.3 0 10.3 20.5 25.1 65.0 47.6 159.5
08/05 02:00 8.9 49 4.29 -1.2 7 11 1019.4 0 10.6 20.7 25.6 66.3 49.1 165.0
08/05 01:50 9.9 45 4.2 -1.5 9 9 1019.5 0 10.4 20.4 25.0 64.7 47.5 159.2
08/05 01:40 10.4 44 4.24 -1.3 9 11 1019.5 0 10.4 20.3 25.0 64.6 47.7 159.9
08/05 01:30 10.9 42 4.18 -1.5 15 22 1019.5 0 10.3 20.1 24.6 63.7 46.7 156.5
08/05 01:20 10.9 43 4.28 -1.2 19 26 1019.5 0 10.5 20.3 24.9 64.6 47.8 160.6
08/05 01:10 10.9 43 4.28 -1.2 17 24 1019.4 0 10.5 20.3 24.9 64.6 47.8 160.6
08/05 01:00 10.7 44 4.32 -1 17 22 1019.4 0 10.6 20.4 25.1 65.1 48.4 162.6
08/05 00:50 10.5 46 4.46 -0.6 15 19 1019.5 0 10.9 20.6 25.7 66.6 50.2 168.8
08/05 00:40 10.4 45 4.34 -1 15 17 1019.3 0 10.7 20.5 25.3 65.6 48.8 164.0
08/05 00:20 11.1 41 4.13 -1.6 13 15 1019.4 0 10.2 20.0 24.4 63.1 46.0 154.1
08/05 00:10 11.3 40 4.08 -1.8 13 17 1019.4 0 10.1 19.9 24.1 62.4 45.3 151.7
08/05 00:00 11.2 41 4.16 -1.5 15 20 1019.3 0 10.2 20.0 24.4 63.2 46.3 155.1
07/05 23:50 11.6 39 4.05 -1.9 15 19 1019.2 0 10.0 19.8 23.9 61.9 44.8 149.9
07/05 23:40 11.5 39 4.03 -2 15 17 1019.1 0 10.0 19.8 23.9 61.8 44.6 149.3
07/05 23:30 11.6 38 3.95 -2.2 17 24 1019 0 9.8 19.7 23.6 61.0 43.6 145.9
07/05 23:20 11.6 38 3.95 -2.2 17 24 1019 0 9.8 19.7 23.6 61.0 43.6 145.9
07/05 23:10 11.8 38 4 -2 19 22 1019.1 0 9.9 19.7 23.7 61.3 44.1 147.5
07/05 23:00 12 37 3.94 -2.2 19 26 1019 0 9.8 19.6 23.4 60.6 43.3 144.8
07/05 22:50 11.9 36 3.81 -2.7 20 26 1019.2 0 9.5 19.4 23.0 59.5 41.9 139.8
07/05 22:40 12 36 3.84 -2.6 17 20 1019.3 0 9.6 19.4 23.1 59.7 42.2 140.9
07/05 22:30 12 36 3.84 -2.6 17 24 1019.3 0 9.6 19.4 23.1 59.7 42.2 140.9
07/05 22:20 12 36 3.84 -2.6 17 19 1019.2 0 9.6 19.4 23.1 59.7 42.2 140.8
07/05 22:10 12.1 36 3.86 -2.5 15 17 1019.2 0 9.6 19.4 23.1 59.8 42.4 141.5
07/05 22:00 12.1 36 3.86 -2.5 13 17 1019.2 0 9.6 19.4 23.1 59.8 42.4 141.5
07/05 21:50 12.1 36 3.86 -2.5 11 13 1019.2 0 9.6 19.4 23.1 59.8 42.4 141.5
07/05 21:40 12.3 36 3.91 -2.3 9 13 1019 0 9.7 19.5 23.3 60.1 42.8 143.1
07/05 21:30 12.7 35 3.9 -2.3 13 20 1019 0 9.7 19.4 23.1 59.7 42.5 142.0
07/05 21:20 13.1 33 3.77 -2.8 15 17 1018.8 0 9.4 19.1 22.6 58.3 40.8 136.2
07/05 21:10 13.2 33 3.79 -2.7 19 26 1018.7 0 9.4 19.1 22.6 58.4 41.0 136.8
07/05 21:00 13.4 32 3.72 -2.9 19 28 1018.5 0 9.3 19.0 22.3 57.6 40.1 133.8
07/05 20:50 13.5 31 3.63 -3.3 17 19 1018.5 0 9.1 18.8 22.0 56.7 39.1 130.1
07/05 20:40 13.7 31 3.67 -3.1 17 20 1018.5 0 9.1 18.8 22.1 56.9 39.4 131.4
07/05 20:30 13.7 31 3.67 -3.1 17 26 1018.4 0 9.1 18.8 22.1 56.9 39.4 131.3
07/05 20:20 13.9 30 3.6 -3.4 20 28 1018.4 0 9.0 18.7 21.8 56.2 38.6 128.4
07/05 20:10 13.9 30 3.6 -3.4 19 24 1018.4 0 9.0 18.7 21.8 56.2 38.6 128.4
07/05 20:00 13.8 31 3.69 -3 15 20 1018.3 0 9.2 18.8 22.1 57.0 39.6 131.9
07/05 19:50 14 30 3.62 -3.3 13 15 1018.2 0 9.0 18.7 21.8 56.3 38.7 128.9

Last Refresh: 08-May-2026 12:09:25

Bureau of Meteorology